createdAt,value
2018-08-16T00:00:25.231Z,99769.99
2018-08-16T00:02:53.020Z,99765.77
2018-08-16T00:05:21.750Z,99771.11
2018-08-16T00:07:49.322Z,99772.37
2018-08-16T00:10:16.912Z,99776.86
2018-08-16T00:12:44.531Z,99774.48
2018-08-16T00:15:12.060Z,99773.64
2018-08-16T00:17:39.653Z,99770.16
2018-08-16T00:20:07.228Z,99768.44
2018-08-16T00:22:35.242Z,99763.89
2018-08-16T00:25:03.179Z,99764.28
2018-08-16T00:27:30.727Z,99761.69
2018-08-16T00:29:58.280Z,99755.27
2018-08-16T00:32:25.857Z,99762.35
2018-08-16T00:34:53.375Z,99756.57
2018-08-16T00:37:20.976Z,99755.66
2018-08-16T00:39:48.570Z,99762.33
2018-08-16T00:42:16.100Z,99761.73
2018-08-16T00:44:44.745Z,99755.08
2018-08-16T00:47:12.431Z,99762.09
2018-08-16T00:49:40.120Z,99759.61
2018-08-16T00:52:07.684Z,99752.96
2018-08-16T00:54:35.257Z,99754.44
2018-08-16T00:57:02.833Z,99752.09
2018-08-16T00:59:30.416Z,99755.03
2018-08-16T01:01:59.985Z,99752.30
2018-08-16T01:04:27.561Z,99748.13
2018-08-16T01:06:55.112Z,99745.80
2018-08-16T01:09:22.683Z,99744.19
2018-08-16T01:11:50.254Z,99746.12
2018-08-16T01:14:17.964Z,99741.66
2018-08-16T01:16:45.517Z,99746.68
2018-08-16T01:19:13.068Z,99752.05
2018-08-16T01:21:40.677Z,99749.49
2018-08-16T01:24:08.232Z,99746.34
2018-08-16T01:26:35.854Z,99749.91
2018-08-16T01:29:03.416Z,99746.16
2018-08-16T01:31:30.978Z,99751.83
2018-08-16T01:33:58.551Z,99744.18
2018-08-16T01:36:26.121Z,99743.94
2018-08-16T01:38:53.665Z,99745.62
2018-08-16T01:41:21.242Z,99749.74
2018-08-16T01:43:48.815Z,99746.11
2018-08-16T01:46:16.905Z,99742.53
2018-08-16T01:48:44.461Z,99748.77
2018-08-16T01:51:12.005Z,99745.34
2018-08-16T01:53:39.653Z,99735.27
2018-08-16T01:56:07.992Z,99736.95
2018-08-16T01:58:35.580Z,99735.34
2018-08-16T02:01:03.110Z,99743.16
2018-08-16T02:03:30.695Z,99740.31
2018-08-16T02:05:58.221Z,99740.35
2018-08-16T02:08:25.803Z,99743.06
2018-08-16T02:10:54.428Z,99739.00
2018-08-16T02:13:21.961Z,99738.06
2018-08-16T02:15:49.533Z,99741.23
2018-08-16T02:18:17.109Z,99734.17
2018-08-16T02:20:45.077Z,99730.55
2018-08-16T02:23:12.640Z,99732.05
2018-08-16T02:25:41.286Z,99733.84
2018-08-16T02:28:08.844Z,99725.53
2018-08-16T02:30:36.446Z,99728.37
2018-08-16T02:33:04.783Z,99725.44
2018-08-16T02:35:32.331Z,99725.57
2018-08-16T02:37:59.930Z,99726.66
2018-08-16T02:40:27.457Z,99717.11
2018-08-16T02:42:55.015Z,99722.73
2018-08-16T02:45:22.554Z,99716.64
2018-08-16T02:47:50.117Z,99712.46
2018-08-16T02:50:17.656Z,99712.52
2018-08-16T02:52:45.235Z,99713.05
2018-08-16T02:55:12.760Z,99710.50
2018-08-16T02:57:41.351Z,99705.60
2018-08-16T03:00:09.566Z,99705.03
2018-08-16T03:02:37.153Z,99702.78
2018-08-16T03:05:04.730Z,99701.95
2018-08-16T03:07:32.331Z,99704.13
2018-08-16T03:09:59.868Z,99698.93
2018-08-16T03:12:27.429Z,99696.03
2018-08-16T03:14:55.162Z,99696.36
2018-08-16T03:17:22.755Z,99690.28
2018-08-16T03:19:50.423Z,99687.27
2018-08-16T03:22:17.958Z,99682.89
2018-08-16T03:24:45.614Z,99678.59
2018-08-16T03:27:13.209Z,99676.91
2018-08-16T03:29:40.753Z,99676.61
2018-08-16T03:32:08.349Z,99683.57
2018-08-16T03:34:36.879Z,99678.50
2018-08-16T03:37:04.485Z,99678.58
2018-08-16T03:39:32.131Z,99673.83
2018-08-16T03:41:59.701Z,99670.98
2018-08-16T03:44:27.280Z,99673.55
2018-08-16T03:46:54.818Z,99670.36
2018-08-16T03:49:23.889Z,99665.89
2018-08-16T03:51:51.587Z,99661.84
2018-08-16T03:54:19.177Z,99667.31
2018-08-16T03:56:46.800Z,99664.91
2018-08-16T03:59:14.575Z,99665.90
2018-08-16T04:01:42.117Z,99665.70
2018-08-16T04:04:09.859Z,99664.44
2018-08-16T04:06:37.497Z,99658.00
2018-08-16T04:09:05.018Z,99665.11
2018-08-16T04:11:32.565Z,99667.21
2018-08-16T04:14:00.192Z,99662.91
2018-08-16T04:16:28.630Z,99664.23
2018-08-16T04:18:56.265Z,99663.39
2018-08-16T04:21:23.843Z,99664.34
2018-08-16T04:23:51.378Z,99664.16
2018-08-16T04:26:19.284Z,99667.73
2018-08-16T04:28:46.920Z,99667.17
2018-08-16T04:31:14.459Z,99666.26
2018-08-16T04:33:42.091Z,99660.97
2018-08-16T04:36:09.677Z,99665.87
2018-08-16T04:38:37.269Z,99665.66
2018-08-16T04:41:04.828Z,99664.28
2018-08-16T04:43:32.423Z,99661.95
2018-08-16T04:45:59.994Z,99664.98
2018-08-16T04:48:27.592Z,99661.53
2018-08-16T04:50:55.222Z,99661.71
2018-08-16T04:53:23.953Z,99665.13
2018-08-16T04:55:51.559Z,99675.02
2018-08-16T04:58:19.097Z,99665.80
2018-08-16T05:00:46.677Z,99668.65
2018-08-16T05:03:14.236Z,99669.81
2018-08-16T05:05:41.881Z,99664.57
2018-08-16T05:08:09.429Z,99670.54
2018-08-16T05:10:37.012Z,99667.25
2018-08-16T05:13:04.629Z,99667.11
2018-08-16T05:15:32.178Z,99671.77
2018-08-16T05:17:59.764Z,99673.59
2018-08-16T05:20:27.323Z,99669.53
2018-08-16T05:22:54.909Z,99669.91
2018-08-16T05:25:22.450Z,99670.27
2018-08-16T05:27:50.041Z,99667.91
2018-08-16T05:30:17.602Z,99670.51
2018-08-16T05:32:45.206Z,99667.34
2018-08-16T05:35:12.927Z,99665.69
2018-08-16T05:37:40.518Z,99666.16
2018-08-16T05:40:08.068Z,99671.77
2018-08-16T05:42:35.671Z,99667.53
2018-08-16T05:45:03.240Z,99669.97
2018-08-16T05:47:30.884Z,99671.35
2018-08-16T05:49:58.407Z,99667.61
2018-08-16T05:52:26.011Z,99666.85
2018-08-16T05:54:53.606Z,99663.36
2018-08-16T05:57:21.165Z,99662.02
2018-08-16T05:59:48.783Z,99656.22
2018-08-16T06:02:16.524Z,99662.87
2018-08-16T06:04:44.087Z,99657.24
2018-08-16T06:07:14.818Z,99656.88
2018-08-16T06:09:42.383Z,99650.23
2018-08-16T06:12:10.002Z,99652.23
2018-08-16T06:14:37.561Z,99654.50
2018-08-16T06:17:05.168Z,99649.56
2018-08-16T06:19:32.701Z,99641.80
2018-08-16T06:22:00.298Z,99647.07
2018-08-16T06:24:27.862Z,99642.17
2018-08-16T06:26:55.458Z,99642.64
2018-08-16T06:29:23.009Z,99638.95
2018-08-16T06:31:50.640Z,99630.63
2018-08-16T06:34:18.202Z,99635.11
2018-08-16T06:36:45.804Z,99628.85
2018-08-16T06:39:13.379Z,99632.87
2018-08-16T06:41:40.928Z,99637.11
2018-08-16T06:44:08.516Z,99625.95
2018-08-16T06:46:40.905Z,99632.18
2018-08-16T06:49:08.508Z,99630.23
2018-08-16T06:51:36.080Z,99629.42
2018-08-16T06:54:03.670Z,99627.97
2018-08-16T06:56:31.344Z,99627.79
2018-08-16T06:58:59.126Z,99629.47
2018-08-16T07:01:27.033Z,99632.69
2018-08-16T07:03:54.601Z,99633.08
2018-08-16T07:06:25.717Z,99625.58
2018-08-16T07:08:53.317Z,99623.98
2018-08-16T07:11:21.005Z,99623.77
2018-08-16T07:13:48.573Z,99626.14
2018-08-16T07:16:16.187Z,99620.92
2018-08-16T07:18:45.876Z,99622.89
2018-08-16T07:21:13.434Z,99621.11
2018-08-16T07:23:41.018Z,99622.15
2018-08-16T07:26:08.718Z,99618.42
2018-08-16T07:28:36.267Z,99621.00
2018-08-16T07:31:04.054Z,99616.42
2018-08-16T07:33:32.690Z,99617.84
2018-08-16T07:36:00.261Z,99618.53
2018-08-16T07:38:27.820Z,99615.95
2018-08-16T07:40:55.376Z,99611.42
2018-08-16T07:43:22.963Z,99613.96
2018-08-16T07:45:50.729Z,99609.20
2018-08-16T07:48:18.229Z,99613.47
2018-08-16T07:50:45.747Z,99602.54
2018-08-16T07:53:13.343Z,99611.85
2018-08-16T07:55:40.897Z,99616.86
2018-08-16T07:58:08.572Z,99619.73
2018-08-16T08:00:36.109Z,99624.75
2018-08-16T08:03:03.686Z,99621.41
2018-08-16T08:05:31.247Z,99623.46
2018-08-16T08:07:58.840Z,99625.30
2018-08-16T08:10:26.533Z,99622.17
2018-08-16T08:12:54.991Z,99620.53
2018-08-16T08:15:24.033Z,99617.52
2018-08-16T08:17:51.945Z,99624.64
2018-08-16T08:20:19.671Z,99621.61
2018-08-16T08:22:48.984Z,99619.92
2018-08-16T08:25:16.571Z,99624.53
2018-08-16T08:27:44.274Z,99627.96
2018-08-16T08:30:11.980Z,99624.68
2018-08-16T08:32:39.873Z,99626.94
2018-08-16T08:35:07.566Z,99619.42
2018-08-16T08:38:01.711Z,99624.65
2018-08-16T08:40:29.485Z,99616.84
2018-08-16T08:42:57.035Z,99608.48
2018-08-16T08:45:24.638Z,99611.03
2018-08-16T08:47:55.600Z,99599.80
2018-08-16T08:50:23.185Z,99605.19
2018-08-16T08:52:50.763Z,99601.78
2018-08-16T08:55:31.183Z,99601.33
2018-08-16T08:57:58.912Z,99600.84
2018-08-16T09:00:26.474Z,99594.97
2018-08-16T09:02:54.040Z,99591.66
2018-08-16T09:05:21.600Z,99596.36
2018-08-16T09:07:49.143Z,99593.47
2018-08-16T09:10:28.643Z,99591.34
2018-08-16T09:13:07.905Z,99579.95
2018-08-16T09:15:35.680Z,99575.25
2018-08-16T09:18:03.250Z,99568.48
2018-08-16T09:20:30.983Z,99571.47
2018-08-16T09:22:58.556Z,99565.34
2018-08-16T09:25:29.200Z,99569.94
2018-08-16T09:27:58.259Z,99567.41
2018-08-16T09:34:06.143Z,99553.00
2018-08-16T09:36:33.749Z,99552.61
2018-08-16T09:39:01.344Z,99552.02
2018-08-16T09:41:28.989Z,99550.22
2018-08-16T09:43:56.629Z,99551.11
2018-08-16T09:46:35.945Z,99550.69
2018-08-16T09:49:03.487Z,99542.92
2018-08-16T09:51:32.309Z,99548.52
2018-08-16T09:53:59.980Z,99544.66
2018-08-16T09:56:27.625Z,99545.21
2018-08-16T09:58:55.191Z,99540.12
2018-08-16T10:01:23.900Z,99538.80
2018-08-16T10:03:51.869Z,99539.29
2018-08-16T10:06:19.487Z,99531.68
2018-08-16T10:08:47.256Z,99537.23
2018-08-16T10:11:16.821Z,99531.23
2018-08-16T10:13:44.562Z,99528.70
2018-08-16T10:16:12.105Z,99526.13
2018-08-16T10:18:39.707Z,99512.47
2018-08-16T10:21:10.935Z,99512.19
2018-08-16T10:23:39.685Z,99510.55
2018-08-16T10:26:07.421Z,99508.19
2018-08-16T10:28:35.214Z,99511.48
2018-08-16T10:31:02.961Z,99517.23
2018-08-16T10:33:30.699Z,99502.33
2018-08-16T10:36:00.624Z,99501.34
2018-08-16T10:38:29.231Z,99498.24
2018-08-16T10:40:57.261Z,99507.69
2018-08-16T10:43:24.855Z,99499.95
2018-08-16T10:45:52.399Z,99504.86
2018-08-16T10:48:20.135Z,99498.71
2018-08-16T10:50:47.923Z,99501.21
2018-08-16T10:53:15.474Z,99492.70
2018-08-16T10:55:43.303Z,99493.13
2018-08-16T10:58:10.956Z,99504.30
2018-08-16T11:00:38.722Z,99495.12
2018-08-16T11:03:06.501Z,99495.12
2018-08-16T11:05:34.093Z,99495.71
2018-08-16T11:08:02.849Z,99503.77
2018-08-16T11:10:31.574Z,99490.94
2018-08-16T11:12:59.233Z,99498.34
2018-08-16T11:15:28.025Z,99494.08
2018-08-16T11:17:55.778Z,99490.62
2018-08-16T11:20:23.394Z,99486.12
2018-08-16T11:22:51.048Z,99485.67
2018-08-16T11:25:18.801Z,99487.55
2018-08-16T11:27:47.344Z,99490.47
2018-08-16T11:30:14.902Z,99488.30
2018-08-16T11:32:42.492Z,99495.39
2018-08-16T11:35:10.140Z,99489.67
2018-08-16T11:37:39.955Z,99487.40
2018-08-16T11:40:07.580Z,99481.94
2018-08-16T11:42:35.300Z,99481.38
2018-08-16T11:45:02.828Z,99484.59
2018-08-16T11:47:30.554Z,99480.44
2018-08-16T11:49:58.124Z,99475.34
2018-08-16T11:52:25.784Z,99467.13
2018-08-16T11:54:53.349Z,99472.63
2018-08-16T11:57:21.188Z,99462.32
2018-08-16T11:59:48.742Z,99459.81
2018-08-16T12:02:16.360Z,99460.27
2018-08-16T12:04:43.877Z,99453.05
2018-08-16T12:07:11.447Z,99459.06
2018-08-16T12:09:39.141Z,99457.60
2018-08-16T12:12:06.919Z,99461.08
2018-08-16T12:14:34.706Z,99456.54
2018-08-16T12:17:03.418Z,99451.98
2018-08-16T12:19:31.014Z,99450.37
2018-08-16T12:21:58.747Z,99449.86
2018-08-16T12:24:26.476Z,99447.23
2018-08-16T12:26:54.176Z,99442.46
2018-08-16T12:29:30.945Z,99440.98
2018-08-16T12:32:01.757Z,99434.55
2018-08-16T12:34:29.412Z,99446.09
2018-08-16T12:36:58.316Z,99436.17
2018-08-16T12:39:26.689Z,99430.03
2018-08-16T12:41:54.306Z,99425.62
2018-08-16T12:44:22.049Z,99424.47
2018-08-16T12:47:10.150Z,99432.20
2018-08-16T12:49:37.855Z,99422.92
2018-08-16T12:52:05.538Z,99405.97
2018-08-16T12:54:33.304Z,99414.38
2018-08-16T12:57:01.344Z,99412.74
2018-08-16T12:59:28.950Z,99400.25
2018-08-16T13:01:56.539Z,99413.18
2018-08-16T13:04:24.071Z,99399.11
2018-08-16T13:06:51.658Z,99397.11
2018-08-16T13:09:19.477Z,99398.20
2018-08-16T13:11:47.046Z,99395.70
2018-08-16T13:14:16.706Z,99402.34
2018-08-16T13:16:44.472Z,99397.56
2018-08-16T13:59:59.232Z,99379.17
2018-08-16T14:02:26.829Z,99376.41
2018-08-16T14:04:54.826Z,99373.77
2018-08-16T14:07:22.473Z,99377.97
2018-08-16T14:09:50.354Z,99371.16
2018-08-16T14:12:18.272Z,99366.09
2018-08-16T14:14:47.197Z,99363.76
2018-08-16T14:17:15.155Z,99369.78
2018-08-16T14:19:42.752Z,99370.88
2018-08-16T14:22:10.518Z,99362.25
2018-08-16T14:24:38.170Z,99371.20
2018-08-16T14:27:05.743Z,99362.34
2018-08-16T14:29:33.365Z,99359.86
2018-08-16T14:32:01.031Z,99360.47
2018-08-16T14:34:28.869Z,99364.02
2018-08-16T14:36:56.455Z,99348.83
2018-08-16T14:39:23.982Z,99353.01
2018-08-16T14:41:51.827Z,99360.56
2018-08-16T14:44:19.396Z,99359.11
2018-08-16T14:46:48.987Z,99356.39
2018-08-16T14:49:16.558Z,99354.38
2018-08-16T14:51:44.148Z,99351.01
2018-08-16T14:54:11.820Z,99349.66
2018-08-16T14:56:39.404Z,99353.85
2018-08-16T14:59:08.874Z,99347.98
2018-08-16T15:01:36.445Z,99350.36
2018-08-16T15:04:04.018Z,99349.81
2018-08-16T15:06:31.571Z,99351.75
2018-08-16T15:08:59.120Z,99348.45
2018-08-16T15:11:26.702Z,99350.52
2018-08-16T15:13:54.236Z,99349.36
2018-08-16T15:16:22.954Z,99349.69
2018-08-16T15:18:50.792Z,99348.13
2018-08-16T15:21:18.384Z,99349.05
2018-08-16T15:23:46.555Z,99348.69
2018-08-16T15:26:15.505Z,99351.34
2018-08-16T15:28:43.186Z,99345.11
2018-08-16T15:31:10.799Z,99353.02
2018-08-16T15:33:38.333Z,99343.98
2018-08-16T15:36:06.204Z,99342.73
2018-08-16T15:38:33.749Z,99345.75
2018-08-16T15:41:01.687Z,99336.31
2018-08-16T15:43:29.313Z,99339.13
2018-08-16T15:45:57.012Z,99333.03
2018-08-16T15:48:24.641Z,99333.91
2018-08-16T15:50:52.213Z,99332.41
2018-08-16T15:53:19.900Z,99329.27
2018-08-16T15:55:47.520Z,99330.16
2018-08-16T15:58:15.079Z,99338.27
2018-08-16T16:00:42.653Z,99335.70
2018-08-16T16:03:10.243Z,99333.23
2018-08-16T16:05:37.942Z,99332.80
2018-08-16T16:08:05.830Z,99328.88
2018-08-16T16:10:33.565Z,99329.98
2018-08-16T16:13:01.119Z,99325.67
2018-08-16T16:15:28.758Z,99318.67
2018-08-16T16:17:56.318Z,99319.42
2018-08-16T16:20:24.011Z,99314.52
2018-08-16T16:22:51.575Z,99326.09
2018-08-16T16:25:19.256Z,99321.44
2018-08-16T16:27:46.788Z,99316.59
2018-08-16T16:30:14.413Z,99312.46
2018-08-16T16:32:42.005Z,99312.38
2018-08-16T16:35:09.747Z,99312.69
2018-08-16T16:37:37.329Z,99302.98
2018-08-16T16:40:04.885Z,99302.07
2018-08-16T16:42:32.433Z,99303.56
2018-08-16T16:45:00.072Z,99302.50
2018-08-16T16:47:27.919Z,99302.82
2018-08-16T16:49:55.694Z,99303.37
2018-08-16T16:52:24.409Z,99302.03
2018-08-16T16:54:52.987Z,99300.73
2018-08-16T16:57:21.174Z,99299.39
2018-08-16T16:59:50.859Z,99297.05
2018-08-16T17:02:19.342Z,99290.97
2018-08-16T17:04:47.200Z,99293.42
2018-08-16T17:07:14.954Z,99291.87
2018-08-16T17:09:42.649Z,99288.14
2018-08-16T17:12:10.475Z,99295.04
2018-08-16T17:14:38.412Z,99294.47
2018-08-16T17:17:07.100Z,99290.97
2018-08-16T17:19:34.701Z,99288.96
2018-08-16T17:22:02.317Z,99288.71
2018-08-16T17:24:29.915Z,99289.12
2018-08-16T17:26:57.913Z,99287.14
2018-08-16T17:29:25.501Z,99284.20
2018-08-16T17:31:53.354Z,99288.08
2018-08-16T17:34:21.224Z,99278.47
2018-08-16T17:36:49.126Z,99286.34
2018-08-16T17:39:16.642Z,99281.16
2018-08-16T17:41:44.275Z,99282.73
2018-08-16T17:44:11.865Z,99281.65
2018-08-16T17:46:39.427Z,99285.98
2018-08-16T17:49:07.122Z,99287.98
2018-08-16T17:51:34.661Z,99290.91
2018-08-16T17:54:03.385Z,99293.48
2018-08-16T17:56:30.972Z,99287.11
2018-08-16T17:58:58.535Z,99292.70
2018-08-16T18:01:26.091Z,99283.46
2018-08-16T18:03:53.683Z,99280.50
2018-08-16T18:06:21.288Z,99288.64
2018-08-16T18:08:50.894Z,99284.69
2018-08-16T18:11:18.486Z,99285.43
2018-08-16T18:13:46.066Z,99287.14
2018-08-16T18:16:13.750Z,99292.35
2018-08-16T18:18:42.289Z,99286.12
2018-08-16T18:21:09.828Z,99283.45
2018-08-16T18:23:37.396Z,99283.84
2018-08-16T18:26:04.957Z,99284.48
2018-08-16T18:28:32.541Z,99284.11
2018-08-16T18:31:00.111Z,99282.87
2018-08-16T18:33:27.693Z,99290.88
2018-08-16T18:35:57.272Z,99292.33
2018-08-16T18:38:24.865Z,99295.61
2018-08-16T18:40:52.465Z,99295.69
2018-08-16T18:43:20.053Z,99297.26
2018-08-16T18:45:47.581Z,99290.58
2018-08-16T18:48:15.373Z,99299.16
2018-08-16T18:50:42.963Z,99293.06
2018-08-16T18:53:10.508Z,99302.46
2018-08-16T18:55:38.250Z,99303.89
2018-08-16T18:58:05.772Z,99309.19
2018-08-16T19:00:34.291Z,99314.16
2018-08-16T19:03:02.131Z,99313.11
2018-08-16T19:05:29.797Z,99316.73
2018-08-16T19:07:57.313Z,99307.89
2018-08-16T19:10:24.915Z,99313.53
2018-08-16T19:12:52.501Z,99320.11
2018-08-16T19:15:22.121Z,99324.84
2018-08-16T19:17:49.649Z,99325.52
2018-08-16T19:20:18.609Z,99319.69
2018-08-16T19:22:46.173Z,99319.88
2018-08-16T19:25:13.846Z,99319.92
2018-08-16T19:27:41.444Z,99321.09
2018-08-16T19:30:09.060Z,99327.31
2018-08-16T19:32:36.580Z,99328.44
2018-08-16T19:35:04.157Z,99332.55
2018-08-16T19:37:31.753Z,99334.04
2018-08-16T19:39:59.435Z,99335.09
2018-08-16T19:42:26.994Z,99335.70
2018-08-16T19:44:54.574Z,99329.66
2018-08-16T19:47:22.090Z,99329.53
2018-08-16T19:49:49.662Z,99336.64
2018-08-16T19:52:17.256Z,99340.45
2018-08-16T19:54:45.130Z,99336.66
2018-08-16T19:57:12.721Z,99331.67
2018-08-16T19:59:40.258Z,99340.81
2018-08-16T20:02:07.852Z,99336.23
2018-08-16T20:04:35.480Z,99341.31
2018-08-16T20:07:03.084Z,99335.53
2018-08-16T20:09:30.621Z,99333.14
2018-08-16T20:11:59.235Z,99341.75
2018-08-16T20:14:30.287Z,99343.81
2018-08-16T20:16:58.031Z,99344.40
2018-08-16T20:19:25.587Z,99345.05
2018-08-16T20:21:54.291Z,99343.27
2018-08-16T20:24:23.916Z,99346.30
2018-08-16T20:26:51.497Z,99346.09
2018-08-16T20:29:19.047Z,99347.17
2018-08-16T20:31:46.663Z,99341.27
2018-08-16T20:34:14.191Z,99339.04
2018-08-16T20:36:43.951Z,99340.70
2018-08-16T20:39:11.551Z,99345.26
2018-08-16T20:41:39.242Z,99349.03
2018-08-16T20:44:06.934Z,99353.66
2018-08-16T20:46:36.582Z,99356.20
2018-08-16T20:49:04.276Z,99353.01
2018-08-16T20:51:31.856Z,99357.95
2018-08-16T20:53:59.532Z,99367.85
2018-08-16T20:56:29.252Z,99363.58
2018-08-16T20:58:57.255Z,99358.16
2018-08-16T21:01:27.084Z,99363.48
2018-08-16T21:03:54.637Z,99365.81
2018-08-16T21:06:22.246Z,99361.14
2018-08-16T21:08:49.861Z,99369.40
2018-08-16T21:11:17.591Z,99370.80
2018-08-16T21:13:45.374Z,99376.64
2018-08-16T21:16:13.152Z,99373.84
2018-08-16T21:18:40.866Z,99378.54
2018-08-16T21:21:08.710Z,99372.07
2018-08-16T21:23:36.429Z,99374.17
2018-08-16T21:26:04.203Z,99373.98
2018-08-16T21:28:31.768Z,99368.56
2018-08-16T21:30:59.302Z,99374.18
2018-08-16T21:33:26.888Z,99374.52
2018-08-16T21:35:54.490Z,99376.98
2018-08-16T21:38:22.094Z,99369.45
2018-08-16T21:40:49.928Z,99372.20
2018-08-16T21:43:17.933Z,99375.34
2018-08-16T21:45:45.481Z,99370.92
2018-08-16T21:48:13.197Z,99371.58
2018-08-16T21:50:40.755Z,99375.11
2018-08-16T21:53:08.329Z,99375.34
2018-08-16T21:55:35.910Z,99378.98
2018-08-16T21:58:03.450Z,99379.72
2018-08-16T22:00:31.032Z,99376.15
2018-08-16T22:02:58.601Z,99375.53
2018-08-16T22:05:26.158Z,99373.97
2018-08-16T22:07:53.772Z,99380.44
2018-08-16T22:10:21.376Z,99379.81
2018-08-16T22:12:49.361Z,99386.98
2018-08-16T22:15:16.966Z,99380.75
2018-08-16T22:17:44.493Z,99380.62
2018-08-16T22:20:12.039Z,99381.67
2018-08-16T22:22:39.613Z,99373.77
2018-08-16T22:25:07.140Z,99372.91
2018-08-16T22:27:35.006Z,99372.17
2018-08-16T22:30:02.551Z,99369.88
2018-08-16T22:32:30.245Z,99373.20
2018-08-16T22:34:57.824Z,99363.20
2018-08-16T22:37:25.443Z,99366.83
2018-08-16T22:39:53.043Z,99374.65
2018-08-16T22:42:20.670Z,99369.88
2018-08-16T22:44:48.381Z,99377.74
2018-08-16T22:47:15.976Z,99374.25
2018-08-16T22:49:43.653Z,99369.40
2018-08-16T22:52:11.390Z,99376.80
2018-08-16T22:54:38.986Z,99373.77
2018-08-16T22:57:06.525Z,99371.55
2018-08-16T22:59:34.063Z,99371.88
2018-08-16T23:02:01.962Z,99372.08
2018-08-16T23:04:29.965Z,99373.95
2018-08-16T23:06:57.721Z,99368.39
2018-08-16T23:09:25.265Z,99364.02
2018-08-16T23:11:52.815Z,99358.17
2018-08-16T23:14:20.411Z,99358.58
2018-08-16T23:16:48.170Z,99355.84
2018-08-16T23:19:15.727Z,99353.04
2018-08-16T23:21:43.401Z,99352.41
2018-08-16T23:24:11.023Z,99357.08
2018-08-16T23:26:38.679Z,99351.92
2018-08-16T23:29:06.230Z,99354.45
2018-08-16T23:31:33.802Z,99349.52
2018-08-16T23:34:01.386Z,99344.18
2018-08-16T23:36:29.018Z,99344.55
2018-08-16T23:38:56.657Z,99350.12
2018-08-16T23:41:24.243Z,99343.67
2018-08-16T23:43:51.836Z,99338.96
2018-08-16T23:46:19.424Z,99341.28
2018-08-16T23:48:46.993Z,99342.82
2018-08-16T23:51:14.541Z,99343.78
2018-08-16T23:53:42.149Z,99338.13
2018-08-16T23:56:09.699Z,99338.00
2018-08-16T23:58:37.281Z,99336.27
